createdAt,value
2022-11-27T00:00:29.899Z,2.55
2022-11-27T00:02:33.316Z,0.75
2022-11-27T00:04:38.549Z,2.15
2022-11-27T00:06:41.696Z,1.17
2022-11-27T00:08:44.852Z,2.10
2022-11-27T00:10:46.682Z,1.77
2022-11-27T00:12:48.480Z,1.98
2022-11-27T00:14:54.668Z,3.17
2022-11-27T00:16:59.954Z,1.67
2022-11-27T00:19:01.854Z,4.15
2022-11-27T00:21:07.644Z,2.95
2022-11-27T00:23:09.384Z,4.85
2022-11-27T00:25:11.241Z,3.92
2022-11-27T00:27:13.090Z,2.53
2022-11-27T00:29:14.943Z,2.28
2022-11-27T00:31:20.613Z,3.92
2022-11-27T00:33:22.458Z,3.60
2022-11-27T00:35:24.254Z,3.22
2022-11-27T00:37:26.084Z,3.25
2022-11-27T00:39:28.094Z,2.25
2022-11-27T00:41:30.999Z,4.63
2022-11-27T00:43:43.225Z,3.08
2022-11-27T00:45:50.004Z,3.50
2022-11-27T00:47:51.729Z,4.18
2022-11-27T00:49:53.551Z,8.07
2022-11-27T00:51:55.314Z,2.58
2022-11-27T00:53:58.519Z,4.93
2022-11-27T00:56:00.843Z,3.10
2022-11-27T00:58:02.661Z,1.83
2022-11-27T01:00:06.589Z,1.67
2022-11-27T01:02:08.596Z,3.83
2022-11-27T01:04:15.433Z,4.07
2022-11-27T01:06:19.249Z,3.08
2022-11-27T01:08:21.935Z,3.08
2022-11-27T01:10:23.751Z,1.27
2022-11-27T01:12:25.513Z,1.27
2022-11-27T01:14:27.350Z,1.25
2022-11-27T01:16:30.815Z,2.53
2022-11-27T01:18:33.644Z,2.05
2022-11-27T01:20:40.000Z,3.78
2022-11-27T01:22:41.793Z,4.05
2022-11-27T01:24:44.014Z,5.03
2022-11-27T01:26:46.059Z,5.30
2022-11-27T01:28:48.140Z,3.92
2022-11-27T01:30:50.921Z,2.20
2022-11-27T01:32:52.705Z,3.53
2022-11-27T01:34:54.795Z,3.35
2022-11-27T01:36:56.563Z,1.33
2022-11-27T01:38:59.139Z,3.60
2022-11-27T01:41:04.694Z,2.47
2022-11-27T01:43:11.109Z,1.15
2022-11-27T01:45:16.744Z,1.35
2022-11-27T01:47:27.749Z,2.45
2022-11-27T01:49:38.457Z,2.90
2022-11-27T01:53:49.927Z,1.40
2022-11-27T01:55:58.578Z,4.43
2022-11-27T01:58:12.353Z,5.07
2022-11-27T02:00:16.520Z,1.65
2022-11-27T02:02:18.698Z,2.85
2022-11-27T02:04:20.519Z,3.13
2022-11-27T02:06:22.381Z,3.75
2022-11-27T02:08:24.240Z,2.08
2022-11-27T02:10:39.070Z,2.72
2022-11-27T02:12:51.794Z,4.82
2022-11-27T02:14:57.174Z,3.55
2022-11-27T02:17:09.954Z,4.90
2022-11-27T02:19:35.565Z,7.00
2022-11-27T02:21:54.703Z,1.67
2022-11-27T02:24:02.740Z,2.40
2022-11-27T02:26:23.425Z,3.10
2022-11-27T02:28:44.449Z,2.42
2022-11-27T02:30:57.719Z,3.33
2022-11-27T02:33:03.277Z,2.85
2022-11-27T02:35:17.997Z,2.72
2022-11-27T02:37:27.767Z,0.98
2022-11-27T02:39:38.681Z,2.00
2022-11-27T02:41:50.922Z,2.80
2022-11-27T02:43:54.324Z,1.73
2022-11-27T02:45:59.184Z,1.83
2022-11-27T02:48:01.100Z,4.13
2022-11-27T02:50:04.059Z,3.15
2022-11-27T02:52:06.971Z,2.92
2022-11-27T02:54:13.954Z,1.33
2022-11-27T02:56:20.530Z,4.18
2022-11-27T02:58:25.705Z,1.05
2022-11-27T03:00:28.788Z,1.33
2022-11-27T03:02:35.261Z,2.10
2022-11-27T03:04:45.840Z,3.80
2022-11-27T03:06:53.359Z,2.50
2022-11-27T03:09:05.205Z,2.38
2022-11-27T03:11:11.041Z,3.67
2022-11-27T03:13:12.884Z,2.33
2022-11-27T03:15:15.045Z,3.58
2022-11-27T03:17:33.901Z,3.83
2022-11-27T03:19:51.379Z,2.22
2022-11-27T03:21:57.066Z,7.78
2022-11-27T03:23:59.424Z,3.05
2022-11-27T03:26:01.188Z,5.97
2022-11-27T03:28:07.434Z,0.85
2022-11-27T03:30:11.002Z,3.17
2022-11-27T03:32:13.140Z,3.80
2022-11-27T03:34:16.440Z,2.78
2022-11-27T03:36:20.181Z,2.95
2022-11-27T03:38:22.017Z,4.07
2022-11-27T03:40:31.659Z,3.38
2022-11-27T03:42:52.404Z,2.72
2022-11-27T03:45:13.371Z,1.35
2022-11-27T03:49:34.149Z,3.55
2022-11-27T03:51:45.030Z,3.13
2022-11-27T03:53:59.666Z,0.98
2022-11-27T03:56:12.126Z,1.55
2022-11-27T03:58:18.017Z,2.58
2022-11-27T04:00:20.001Z,3.03
2022-11-27T04:02:39.696Z,1.10
2022-11-27T04:04:42.039Z,3.42
2022-11-27T04:06:44.070Z,0.82
2022-11-27T04:08:47.715Z,1.55
2022-11-27T04:10:49.449Z,2.15
2022-11-27T04:12:51.238Z,1.67
2022-11-27T04:14:52.973Z,2.83
2022-11-27T04:16:54.745Z,3.35
2022-11-27T04:18:56.465Z,4.13
2022-11-27T04:20:58.265Z,0.57
2022-11-27T04:23:00.304Z,2.97
2022-11-27T04:25:02.128Z,2.33
2022-11-27T04:27:03.970Z,0.95
2022-11-27T04:29:05.805Z,4.00
2022-11-27T04:31:07.639Z,4.18
2022-11-27T04:33:09.405Z,1.27
2022-11-27T04:35:11.165Z,1.92
2022-11-27T04:37:13.305Z,6.75
2022-11-27T04:39:15.305Z,3.03
2022-11-27T04:41:17.065Z,1.90
2022-11-27T04:43:18.900Z,2.53
2022-11-27T04:45:20.805Z,2.53
2022-11-27T04:47:22.659Z,3.17
2022-11-27T04:49:24.389Z,1.85
2022-11-27T04:51:26.149Z,1.67
2022-11-27T04:53:28.049Z,3.90
2022-11-27T04:55:29.859Z,3.40
2022-11-27T04:57:31.725Z,3.72
2022-11-27T04:59:33.537Z,2.85
2022-11-27T05:01:35.638Z,3.83
2022-11-27T05:03:37.440Z,1.25
2022-11-27T05:05:39.189Z,0.90
2022-11-27T05:07:41.023Z,8.38
2022-11-27T05:09:42.820Z,1.20
2022-11-27T05:11:45.345Z,2.05
2022-11-27T05:13:47.384Z,1.52
2022-11-27T05:15:49.203Z,3.33
2022-11-27T05:17:51.055Z,2.90
2022-11-27T05:19:52.844Z,1.00
2022-11-27T05:21:55.184Z,3.00
2022-11-27T05:23:56.929Z,5.22
2022-11-27T05:25:58.906Z,3.05
2022-11-27T05:28:00.644Z,3.35
2022-11-27T05:30:02.429Z,1.92
2022-11-27T05:32:04.499Z,1.75
2022-11-27T05:34:07.399Z,6.25
2022-11-27T05:36:09.569Z,2.40
2022-11-27T05:38:12.680Z,1.65
2022-11-27T05:40:14.709Z,1.83
2022-11-27T05:42:16.629Z,3.13
2022-11-27T05:44:18.465Z,1.02
2022-11-27T05:46:22.344Z,1.38
2022-11-27T05:48:24.149Z,1.73
2022-11-27T05:50:25.939Z,1.80
2022-11-27T05:52:27.844Z,1.55
2022-11-27T05:54:29.589Z,1.15
2022-11-27T05:56:31.379Z,0.80
2022-11-27T05:58:34.699Z,2.45
2022-11-27T06:00:36.458Z,1.00
2022-11-27T06:02:38.393Z,3.38
2022-11-27T06:04:40.824Z,2.22
2022-11-27T06:06:42.798Z,0.95
2022-11-27T06:08:45.627Z,4.57
2022-11-27T06:10:48.509Z,2.70
2022-11-27T06:12:50.280Z,1.75
2022-11-27T06:14:52.013Z,1.52
2022-11-27T06:16:54.101Z,1.70
2022-11-27T06:18:56.312Z,3.75
2022-11-27T06:20:58.064Z,1.92
2022-11-27T06:22:59.917Z,1.20
2022-11-27T06:25:01.872Z,2.42
2022-11-27T06:27:05.131Z,1.27
2022-11-27T06:29:07.210Z,1.40
2022-11-27T06:31:17.501Z,1.88
2022-11-27T06:33:19.791Z,2.33
2022-11-27T06:35:21.839Z,1.00
2022-11-27T06:37:32.429Z,0.93
2022-11-27T06:39:34.665Z,1.38
2022-11-27T06:41:36.980Z,1.20
2022-11-27T06:43:39.830Z,2.25
2022-11-27T06:45:42.412Z,2.90
2022-11-27T06:47:45.810Z,3.00
2022-11-27T06:49:49.369Z,1.52
2022-11-27T06:51:51.481Z,2.17
2022-11-27T06:54:00.222Z,1.15
2022-11-27T06:56:19.160Z,1.63
2022-11-27T06:58:30.694Z,1.75
2022-11-27T07:00:33.660Z,1.85
2022-11-27T07:02:35.868Z,1.70
2022-11-27T07:04:38.208Z,1.13
2022-11-27T07:06:42.834Z,1.65
2022-11-27T07:08:45.831Z,2.70
2022-11-27T07:10:47.777Z,3.35
2022-11-27T07:12:50.109Z,3.78
2022-11-27T07:14:52.811Z,4.82
2022-11-27T07:16:55.745Z,2.35
2022-11-27T07:19:01.994Z,1.33
2022-11-27T07:21:04.729Z,4.18
2022-11-27T07:23:07.271Z,2.58
2022-11-27T07:25:09.742Z,0.40
2022-11-27T07:27:14.535Z,1.15
2022-11-27T07:29:16.689Z,2.08
2022-11-27T07:31:21.657Z,1.33
2022-11-27T07:33:26.176Z,0.90
2022-11-27T07:35:28.609Z,1.13
2022-11-27T07:37:32.475Z,4.05
2022-11-27T07:40:00.879Z,2.63
2022-11-27T07:42:00.172Z,1.95
2022-11-27T07:44:11.203Z,0.85
2022-11-27T07:46:19.470Z,1.55
2022-11-27T07:48:25.590Z,1.85
2022-11-27T07:50:27.779Z,1.70
2022-11-27T07:52:29.978Z,0.60
2022-11-27T07:54:32.883Z,1.42
2022-11-27T07:56:35.058Z,2.35
2022-11-27T07:58:37.490Z,0.90
2022-11-27T08:00:40.433Z,1.73
2022-11-27T08:02:42.776Z,1.63
2022-11-27T08:04:45.852Z,3.38
2022-11-27T08:06:50.905Z,2.97
2022-11-27T08:08:59.894Z,1.45
2022-11-27T08:11:02.410Z,4.57
2022-11-27T08:13:05.716Z,3.63
2022-11-27T08:15:08.706Z,1.42
2022-11-27T08:17:13.249Z,1.58
2022-11-27T08:19:15.210Z,0.88
2022-11-27T08:21:17.070Z,2.40
2022-11-27T08:23:18.959Z,2.63
2022-11-27T08:25:20.919Z,8.23
2022-11-27T08:27:23.179Z,2.17
2022-11-27T08:29:31.167Z,2.13
2022-11-27T08:31:35.780Z,1.48
2022-11-27T08:33:38.138Z,2.85
2022-11-27T08:35:41.783Z,1.45
2022-11-27T08:37:44.069Z,3.70
2022-11-27T08:39:46.808Z,2.15
2022-11-27T08:41:49.820Z,4.32
2022-11-27T08:43:52.265Z,3.85
2022-11-27T08:46:00.655Z,2.90
2022-11-27T08:48:07.511Z,2.15
2022-11-27T08:50:11.758Z,1.98
2022-11-27T08:52:19.995Z,1.95
2022-11-27T08:54:27.490Z,3.22
2022-11-27T08:56:31.559Z,4.43
2022-11-27T08:58:36.553Z,2.15
2022-11-27T09:00:40.795Z,3.25
2022-11-27T09:02:46.225Z,2.45
2022-11-27T09:04:48.499Z,2.45
2022-11-27T09:06:53.994Z,1.60
2022-11-27T09:09:02.135Z,2.28
2022-11-27T09:11:05.605Z,4.00
2022-11-27T09:13:08.575Z,3.97
2022-11-27T09:15:13.539Z,2.78
2022-11-27T09:17:19.039Z,4.00
2022-11-27T09:19:24.170Z,2.85
2022-11-27T09:21:29.010Z,3.42
2022-11-27T09:23:35.433Z,2.63
2022-11-27T09:25:44.022Z,2.55
2022-11-27T09:27:48.912Z,2.28
2022-11-27T09:29:55.955Z,2.67
2022-11-27T09:32:01.500Z,5.70
2022-11-27T09:34:23.440Z,4.22
2022-11-27T09:36:31.409Z,3.67
2022-11-27T09:38:34.889Z,6.70
2022-11-27T09:40:39.254Z,6.88
2022-11-27T09:42:56.071Z,3.65
2022-11-27T09:45:01.741Z,4.00
2022-11-27T09:47:21.327Z,3.22
2022-11-27T09:49:32.766Z,2.78
2022-11-27T09:51:50.953Z,4.07
2022-11-27T09:54:06.141Z,3.75
2022-11-27T09:56:15.678Z,2.83
2022-11-27T09:58:31.661Z,4.90
2022-11-27T10:00:38.055Z,8.13
2022-11-27T10:02:46.797Z,3.80
2022-11-27T10:05:12.954Z,4.13
2022-11-27T10:07:16.725Z,6.20
2022-11-27T10:09:32.240Z,2.33
2022-11-27T10:11:56.582Z,3.13
2022-11-27T10:14:13.278Z,4.82
2022-11-27T10:16:19.999Z,3.92
2022-11-27T10:18:43.630Z,4.80
2022-11-27T10:21:01.839Z,8.10
2022-11-27T10:23:38.457Z,6.82
2022-11-27T10:25:54.435Z,7.78
2022-11-27T10:28:08.525Z,7.75
2022-11-27T10:30:29.326Z,9.55
2022-11-27T10:35:15.160Z,8.15
2022-11-27T10:37:27.103Z,6.38
2022-11-27T10:39:41.584Z,6.20
2022-11-27T10:42:11.430Z,7.38
2022-11-27T10:44:37.727Z,7.32
2022-11-27T10:46:45.731Z,8.23
2022-11-27T10:48:55.653Z,6.43
2022-11-27T10:51:07.732Z,12.40
2022-11-27T10:53:40.236Z,8.40
2022-11-27T10:56:07.184Z,9.50
2022-11-27T10:58:40.734Z,6.78
2022-11-27T11:00:50.682Z,6.15
2022-11-27T11:03:07.336Z,8.33
2022-11-27T11:05:37.669Z,8.30
2022-11-27T11:07:58.735Z,6.57
2022-11-27T11:10:00.695Z,22.77
2022-11-27T11:14:31.437Z,29.95
2022-11-27T11:16:41.975Z,28.55
2022-11-27T11:23:38.329Z,44.30
2022-11-27T11:25:53.840Z,32.67
2022-11-27T11:28:00.521Z,17.92
2022-11-27T11:30:08.708Z,29.25
2022-11-27T11:32:21.151Z,23.02
2022-11-27T11:34:31.566Z,9.57
2022-11-27T11:36:52.798Z,7.03
2022-11-27T11:38:55.095Z,8.98
2022-11-27T11:41:20.137Z,8.57
2022-11-27T11:43:36.512Z,11.38
2022-11-27T11:45:50.923Z,7.70
2022-11-27T11:48:07.536Z,6.25
2022-11-27T11:50:15.995Z,9.43
2022-11-27T11:52:39.102Z,5.07
2022-11-27T11:55:03.415Z,8.13
2022-11-27T11:57:27.674Z,5.72
2022-11-27T11:59:50.657Z,7.65
2022-11-27T12:02:06.330Z,8.60
2022-11-27T12:07:26.940Z,9.68
2022-11-27T12:09:40.626Z,8.90
2022-11-27T12:12:01.533Z,4.78
2022-11-27T12:14:27.090Z,7.75
2022-11-27T12:16:48.882Z,10.35
2022-11-27T12:19:19.471Z,6.95
2022-11-27T12:21:43.832Z,10.48
2022-11-27T12:24:00.356Z,9.30
2022-11-27T12:26:22.613Z,7.80
2022-11-27T12:29:17.865Z,5.82
2022-11-27T12:31:37.750Z,9.50
2022-11-27T12:33:50.724Z,11.90
2022-11-27T12:36:01.856Z,9.38
2022-11-27T12:38:21.868Z,8.70
2022-11-27T12:40:52.912Z,8.47
2022-11-27T12:45:27.434Z,9.43
2022-11-27T12:50:03.582Z,9.50
2022-11-27T12:52:15.934Z,9.10
2022-11-27T12:54:24.224Z,10.55
2022-11-27T12:56:31.970Z,8.55
2022-11-27T12:58:40.192Z,11.18
2022-11-27T13:00:44.030Z,10.30
2022-11-27T13:03:06.274Z,18.55
2022-11-27T13:05:18.474Z,7.13
2022-11-27T13:07:28.833Z,9.20
2022-11-27T13:09:47.536Z,10.38
2022-11-27T13:11:50.018Z,9.45
2022-11-27T13:13:59.770Z,13.75
2022-11-27T13:16:06.923Z,9.70
2022-11-27T13:18:21.911Z,13.15
2022-11-27T13:20:32.720Z,7.40
2022-11-27T13:22:37.026Z,11.43
2022-11-27T13:24:39.627Z,8.13
2022-11-27T13:26:51.810Z,13.32
2022-11-27T13:28:59.065Z,6.88
2022-11-27T13:31:03.185Z,13.07
2022-11-27T13:33:07.590Z,14.77
2022-11-27T13:35:20.740Z,9.63
2022-11-27T13:37:28.199Z,12.98
2022-11-27T13:39:34.769Z,12.23
2022-11-27T13:41:40.370Z,9.05
2022-11-27T13:43:44.726Z,9.75
2022-11-27T13:45:47.158Z,13.30
2022-11-27T13:47:50.570Z,9.77
2022-11-27T13:50:03.152Z,11.63
2022-11-27T13:52:15.942Z,16.33
2022-11-27T13:54:25.931Z,9.65
2022-11-27T13:56:31.585Z,16.65
2022-11-27T13:58:37.466Z,14.48
2022-11-27T14:00:43.311Z,9.40
2022-11-27T14:02:48.065Z,12.93
2022-11-27T14:04:56.132Z,16.20
2022-11-27T14:07:09.966Z,11.30
2022-11-27T14:09:11.931Z,13.10
2022-11-27T14:11:14.030Z,11.35
2022-11-27T14:13:17.148Z,10.57
2022-11-27T14:15:19.685Z,16.73
2022-11-27T14:17:33.316Z,12.13
2022-11-27T14:19:44.132Z,13.50
2022-11-27T14:23:51.807Z,13.07
2022-11-27T14:26:03.121Z,8.02
2022-11-27T14:28:15.091Z,17.92
2022-11-27T14:30:30.520Z,22.10
2022-11-27T14:32:36.233Z,18.30
2022-11-27T14:34:38.321Z,12.27
2022-11-27T14:36:40.598Z,14.82
2022-11-27T14:38:46.885Z,15.27
2022-11-27T14:40:50.255Z,16.77
2022-11-27T14:42:52.312Z,12.05
2022-11-27T14:45:07.665Z,16.33
2022-11-27T14:47:20.211Z,11.13
2022-11-27T14:49:25.096Z,12.43
2022-11-27T14:51:30.245Z,22.27
2022-11-27T14:53:32.496Z,16.75
2022-11-27T14:55:34.946Z,9.18
2022-11-27T14:57:37.446Z,11.32
2022-11-27T14:59:41.009Z,12.57
2022-11-27T15:01:43.567Z,10.48
2022-11-27T15:03:56.340Z,12.07
2022-11-27T15:06:01.833Z,12.68
2022-11-27T15:08:04.549Z,8.18
2022-11-27T15:10:22.864Z,18.90
2022-11-27T15:12:30.403Z,11.40
2022-11-27T15:14:32.746Z,15.68
2022-11-27T15:16:46.754Z,11.80
2022-11-27T15:18:53.593Z,14.32
2022-11-27T15:20:55.975Z,13.82
2022-11-27T15:23:00.520Z,18.08
2022-11-27T15:25:06.681Z,15.68
2022-11-27T15:27:19.372Z,14.93
2022-11-27T15:29:44.652Z,16.02
2022-11-27T15:31:54.489Z,13.30
2022-11-27T15:33:59.939Z,16.92
2022-11-27T15:36:15.375Z,16.65
2022-11-27T15:38:18.786Z,20.08
2022-11-27T15:40:27.670Z,14.52
2022-11-27T15:42:30.559Z,21.42
2022-11-27T15:44:33.471Z,19.45
2022-11-27T15:46:36.829Z,23.23
2022-11-27T15:48:39.176Z,21.80
2022-11-27T15:50:45.546Z,19.85
2022-11-27T15:52:52.307Z,14.40
2022-11-27T15:54:56.790Z,17.15
2022-11-27T15:56:58.877Z,26.52
2022-11-27T15:59:02.108Z,21.35
2022-11-27T16:01:06.629Z,20.50
2022-11-27T16:03:08.713Z,23.52
2022-11-27T16:05:11.125Z,28.63
2022-11-27T16:07:13.293Z,22.63
2022-11-27T16:09:15.497Z,18.70
2022-11-27T16:11:20.034Z,21.60
2022-11-27T16:13:22.218Z,21.33
2022-11-27T16:15:27.631Z,15.77
2022-11-27T16:17:34.532Z,23.83
2022-11-27T16:19:36.757Z,21.77
2022-11-27T16:21:39.477Z,26.33
2022-11-27T16:23:42.229Z,27.88
2022-11-27T16:25:44.655Z,26.20
2022-11-27T16:27:46.849Z,22.25
2022-11-27T16:29:49.102Z,29.45
2022-11-27T16:31:51.687Z,25.80
2022-11-27T16:33:54.522Z,23.92
2022-11-27T16:35:57.118Z,21.50
2022-11-27T16:37:59.285Z,21.77
2022-11-27T16:40:01.643Z,27.05
2022-11-27T16:42:07.066Z,32.08
2022-11-27T16:44:12.804Z,30.42
2022-11-27T16:46:17.731Z,18.98
2022-11-27T16:48:19.985Z,29.90
2022-11-27T16:50:22.718Z,28.80
2022-11-27T16:52:24.904Z,23.60
2022-11-27T16:54:27.366Z,22.45
2022-11-27T16:56:31.536Z,20.40
2022-11-27T16:58:36.615Z,21.33
2022-11-27T17:00:38.911Z,22.95
2022-11-27T17:02:41.112Z,26.67
2022-11-27T17:04:43.515Z,22.05
2022-11-27T17:06:47.232Z,18.88
2022-11-27T17:08:49.885Z,20.90
2022-11-27T17:10:52.964Z,25.02
2022-11-27T17:12:55.364Z,27.08
2022-11-27T17:14:57.387Z,24.70
2022-11-27T17:16:59.664Z,22.50
2022-11-27T17:19:01.913Z,23.83
2022-11-27T17:21:07.285Z,26.27
2022-11-27T17:23:09.499Z,20.25
2022-11-27T17:25:11.721Z,20.23
2022-11-27T17:27:15.037Z,29.42
2022-11-27T17:29:19.551Z,26.58
2022-11-27T17:31:26.643Z,19.73
2022-11-27T17:33:28.896Z,28.05
2022-11-27T17:35:31.038Z,26.23
2022-11-27T17:37:33.422Z,29.20
2022-11-27T17:39:35.680Z,19.65
2022-11-27T17:41:38.081Z,25.25
2022-11-27T17:43:41.465Z,26.55
2022-11-27T17:45:43.732Z,28.10
2022-11-27T17:47:45.934Z,29.73
2022-11-27T17:49:48.255Z,26.13
2022-11-27T17:51:50.512Z,19.00
2022-11-27T17:53:52.697Z,29.02
2022-11-27T17:55:55.803Z,20.67
2022-11-27T17:57:58.621Z,24.08
2022-11-27T18:00:00.847Z,27.33
2022-11-27T18:02:03.248Z,25.17
2022-11-27T18:04:06.259Z,29.52
2022-11-27T18:06:08.627Z,27.42
2022-11-27T18:08:10.702Z,25.30
2022-11-27T18:10:12.909Z,29.20
2022-11-27T18:12:15.018Z,29.45
2022-11-27T18:14:17.126Z,27.80
2022-11-27T18:16:23.940Z,19.55
2022-11-27T18:18:26.113Z,22.40
2022-11-27T18:20:28.501Z,32.15
2022-11-27T18:22:31.165Z,30.13
2022-11-27T18:24:33.792Z,29.58
2022-11-27T18:29:00.467Z,26.15
2022-11-27T18:31:07.660Z,26.70
2022-11-27T18:33:09.792Z,22.40
2022-11-27T18:35:12.025Z,31.17
2022-11-27T18:37:14.872Z,32.47
2022-11-27T18:39:17.545Z,26.80
2022-11-27T18:41:24.348Z,28.80
2022-11-27T18:43:26.546Z,30.10
2022-11-27T18:45:33.228Z,26.67
2022-11-27T18:47:37.904Z,24.90
2022-11-27T18:49:41.336Z,36.38
2022-11-27T18:51:43.655Z,24.92
2022-11-27T18:53:46.059Z,31.83
2022-11-27T18:55:52.763Z,19.58
2022-11-27T18:57:55.264Z,22.88
2022-11-27T18:59:57.593Z,30.70
2022-11-27T19:01:59.946Z,23.77
2022-11-27T19:04:03.667Z,27.23
2022-11-27T19:06:07.488Z,32.20
2022-11-27T19:08:10.538Z,21.67
2022-11-27T19:10:12.902Z,28.27
2022-11-27T19:12:15.762Z,23.98
2022-11-27T19:14:20.077Z,21.33
2022-11-27T19:16:26.183Z,25.70
2022-11-27T19:18:28.550Z,23.25
2022-11-27T19:20:30.646Z,27.88
2022-11-27T19:22:32.736Z,19.55
2022-11-27T19:24:35.112Z,19.42
2022-11-27T19:26:37.407Z,24.05
2022-11-27T19:28:39.916Z,27.48
2022-11-27T19:30:43.973Z,28.70
2022-11-27T19:32:46.250Z,25.05
2022-11-27T19:34:50.898Z,26.25
2022-11-27T19:36:53.291Z,24.27
2022-11-27T19:39:01.800Z,17.60
2022-11-27T19:41:04.944Z,19.58
2022-11-27T19:43:07.146Z,20.00
2022-11-27T19:45:10.687Z,18.65
2022-11-27T19:47:13.271Z,21.77
2022-11-27T19:49:18.966Z,22.85
2022-11-27T19:51:21.181Z,23.38
2022-11-27T19:53:23.785Z,18.77
2022-11-27T19:55:28.012Z,16.00
2022-11-27T19:57:30.308Z,27.95
2022-11-27T19:59:32.591Z,16.38
2022-11-27T20:01:35.342Z,19.63
2022-11-27T20:03:38.643Z,22.75
2022-11-27T20:05:40.874Z,23.88
2022-11-27T20:07:43.191Z,16.90
2022-11-27T20:09:45.750Z,21.30
2022-11-27T20:11:48.066Z,17.95
2022-11-27T20:13:50.681Z,20.98
2022-11-27T20:15:53.790Z,24.17
2022-11-27T20:17:56.306Z,23.90
2022-11-27T20:19:58.793Z,21.30
2022-11-27T20:22:01.255Z,26.63
2022-11-27T20:24:03.806Z,18.85
2022-11-27T20:26:07.415Z,17.17
2022-11-27T20:28:10.379Z,23.20
2022-11-27T20:30:12.838Z,21.13
2022-11-27T20:32:15.671Z,21.20
2022-11-27T20:34:21.214Z,17.73
2022-11-27T20:36:24.626Z,18.58
2022-11-27T20:38:27.030Z,17.90
2022-11-27T20:40:29.326Z,22.58
2022-11-27T20:42:31.714Z,19.38
2022-11-27T20:44:33.797Z,26.30
2022-11-27T20:46:35.810Z,19.77
2022-11-27T20:48:39.578Z,18.27
2022-11-27T20:50:41.963Z,21.42
2022-11-27T20:52:44.423Z,19.58
2022-11-27T20:54:46.684Z,16.50
2022-11-27T20:56:51.463Z,25.95
2022-11-27T20:58:53.668Z,20.95
2022-11-27T21:00:56.785Z,17.45
2022-11-27T21:02:59.053Z,22.17
2022-11-27T21:05:01.231Z,14.68
2022-11-27T21:07:03.385Z,19.63
2022-11-27T21:09:07.695Z,22.85
2022-11-27T21:11:13.379Z,25.77
2022-11-27T21:13:15.537Z,19.48
2022-11-27T21:15:17.939Z,24.40
2022-11-27T21:17:20.064Z,19.98
2022-11-27T21:19:25.504Z,22.45
2022-11-27T21:21:28.277Z,20.33
2022-11-27T21:23:30.721Z,22.42
2022-11-27T21:25:33.030Z,29.17
2022-11-27T21:27:37.501Z,25.30
2022-11-27T21:29:40.164Z,25.48
2022-11-27T21:31:47.121Z,25.65
2022-11-27T21:33:54.783Z,17.85
2022-11-27T21:35:56.959Z,28.25
2022-11-27T21:37:59.087Z,25.67
2022-11-27T21:40:01.358Z,25.83
2022-11-27T21:42:06.440Z,28.20
2022-11-27T21:44:08.582Z,28.05
2022-11-27T21:46:13.482Z,25.10
2022-11-27T21:48:15.668Z,22.20
2022-11-27T21:50:17.952Z,26.40
2022-11-27T21:52:20.174Z,25.83
2022-11-27T21:54:22.784Z,28.65
2022-11-27T21:56:27.350Z,25.15
2022-11-27T21:58:34.284Z,30.42
2022-11-27T22:00:37.354Z,32.35
2022-11-27T22:02:39.883Z,30.25
2022-11-27T22:04:43.507Z,23.83
2022-11-27T22:06:46.348Z,30.55
2022-11-27T22:08:50.145Z,32.35
2022-11-27T22:10:52.518Z,30.70
2022-11-27T22:12:54.587Z,25.25
2022-11-27T22:14:56.641Z,22.55
2022-11-27T22:16:58.944Z,34.55
2022-11-27T22:19:01.844Z,27.50
2022-11-27T22:21:05.750Z,34.58
2022-11-27T22:23:07.904Z,35.80
2022-11-27T22:25:10.091Z,24.42
2022-11-27T22:27:12.113Z,41.30
2022-11-27T22:29:14.234Z,38.97
2022-11-27T22:31:26.941Z,35.60
2022-11-27T22:33:29.000Z,39.22
2022-11-27T22:35:31.067Z,39.83
2022-11-27T22:37:33.030Z,38.00
2022-11-27T22:39:35.153Z,41.90
2022-11-27T22:41:39.802Z,32.55
2022-11-27T22:43:42.380Z,31.90
2022-11-27T22:45:48.094Z,34.95
2022-11-27T22:47:50.153Z,32.67
2022-11-27T22:49:52.113Z,33.22
2022-11-27T22:51:54.197Z,40.20
2022-11-27T22:53:56.379Z,30.95
2022-11-27T22:56:04.818Z,33.17
2022-11-27T22:58:06.820Z,40.95
2022-11-27T23:00:10.190Z,35.00
2022-11-27T23:02:12.326Z,36.25
2022-11-27T23:04:14.591Z,33.83
2022-11-27T23:06:21.917Z,35.25
2022-11-27T23:08:24.163Z,46.00
2022-11-27T23:10:26.009Z,36.88
2022-11-27T23:12:27.901Z,35.85
2022-11-27T23:14:29.984Z,43.05
2022-11-27T23:16:32.368Z,36.20
2022-11-27T23:18:35.609Z,34.70
2022-11-27T23:20:42.297Z,35.28
2022-11-27T23:22:44.383Z,35.70
2022-11-27T23:24:46.213Z,37.40
2022-11-27T23:26:48.263Z,36.95
2022-11-27T23:28:52.888Z,26.23
2022-11-27T23:31:15.315Z,31.27
2022-11-27T23:33:16.594Z,39.20
2022-11-27T23:35:18.527Z,39.00
2022-11-27T23:37:20.421Z,31.40
2022-11-27T23:39:22.337Z,42.17
2022-11-27T23:41:25.317Z,50.92
2022-11-27T23:43:27.135Z,46.28
2022-11-27T23:45:29.151Z,38.47
2022-11-27T23:47:31.169Z,35.83
2022-11-27T23:49:33.059Z,35.88
2022-11-27T23:51:35.459Z,40.35
2022-11-27T23:53:37.781Z,40.55
2022-11-27T23:55:39.630Z,46.83
2022-11-27T23:57:44.375Z,43.38
2022-11-27T23:59:46.329Z,35.28
